createdAt,value
2019-05-19T00:02:28.093Z,7.33
2019-05-19T00:12:35.725Z,8.13
2019-05-19T00:17:44.601Z,8.33
2019-05-19T00:22:48.685Z,7.83
2019-05-19T00:27:53.029Z,8.90
2019-05-19T00:32:57.290Z,8.13
2019-05-19T00:38:01.260Z,8.45
2019-05-19T00:43:06.079Z,9.07
2019-05-19T00:48:12.984Z,9.38
2019-05-19T00:53:19.165Z,8.73
2019-05-19T00:58:46.746Z,8.98
2019-05-19T01:03:52.128Z,10.65
2019-05-19T01:08:56.155Z,7.85
2019-05-19T01:14:00.408Z,9.48
2019-05-19T01:19:04.643Z,9.75
2019-05-19T01:24:08.933Z,9.00
2019-05-19T01:29:13.016Z,10.13
2019-05-19T01:34:17.577Z,10.08
2019-05-19T01:39:22.281Z,9.18
2019-05-19T01:44:30.294Z,9.80
2019-05-19T01:49:34.325Z,10.08
2019-05-19T01:54:38.491Z,10.38
2019-05-19T01:59:45.145Z,7.60
2019-05-19T02:04:49.276Z,9.13
2019-05-19T02:09:53.391Z,8.93
2019-05-19T02:14:57.679Z,8.28
2019-05-19T02:20:01.854Z,9.70
2019-05-19T02:25:06.925Z,9.50
2019-05-19T02:30:11.045Z,9.78
2019-05-19T02:35:16.427Z,10.15
2019-05-19T02:40:20.676Z,9.43
2019-05-19T02:45:29.556Z,6.35
2019-05-19T02:50:51.542Z,9.35
2019-05-19T02:55:44.019Z,10.43
2019-05-19T03:00:48.080Z,8.95
2019-05-19T03:05:52.538Z,10.53
2019-05-19T03:10:58.396Z,7.92
2019-05-19T03:16:02.999Z,10.10
2019-05-19T03:26:15.708Z,7.72
2019-05-19T03:31:32.409Z,9.35
2019-05-19T03:36:36.758Z,6.60
2019-05-19T03:41:42.015Z,8.93
2019-05-19T03:46:46.270Z,9.20
2019-05-19T03:51:50.611Z,9.95
2019-05-19T03:56:55.214Z,9.38
2019-05-19T04:07:05.078Z,10.95
2019-05-19T04:12:11.396Z,9.13
2019-05-19T04:17:15.469Z,10.48
2019-05-19T04:22:20.232Z,10.93
2019-05-19T04:27:24.262Z,9.73
2019-05-19T04:32:28.524Z,12.15
2019-05-19T04:37:32.887Z,11.55
2019-05-19T04:42:40.229Z,10.03
2019-05-19T04:47:44.545Z,10.93
2019-05-19T04:57:53.972Z,10.88
2019-05-19T05:08:01.452Z,12.90
2019-05-19T05:13:06.841Z,14.87
2019-05-19T05:18:10.987Z,14.33
2019-05-19T05:23:15.304Z,13.60
2019-05-19T05:28:19.428Z,14.23
2019-05-19T05:33:23.724Z,12.18
2019-05-19T05:38:28.152Z,11.40
2019-05-19T05:43:37.007Z,11.15
2019-05-19T05:48:41.412Z,12.98
2019-05-19T05:53:47.024Z,13.10
2019-05-19T05:58:51.624Z,11.43
2019-05-19T06:09:01.369Z,14.30
2019-05-19T06:14:06.293Z,14.85
2019-05-19T06:19:10.674Z,14.25
2019-05-19T06:24:19.055Z,13.88
2019-05-19T06:29:23.398Z,16.48
2019-05-19T06:34:31.049Z,14.90
2019-05-19T06:39:40.596Z,14.47
2019-05-19T06:44:46.569Z,16.87
2019-05-19T06:49:50.822Z,17.48
2019-05-19T06:54:54.993Z,17.82
2019-05-19T07:00:03.894Z,19.35
2019-05-19T07:05:15.338Z,18.82
2019-05-19T07:10:24.225Z,19.82
2019-05-19T07:15:28.623Z,18.65
2019-05-19T07:20:41.816Z,17.50
2019-05-19T07:25:47.759Z,18.10
2019-05-19T07:30:54.352Z,15.83
2019-05-19T07:36:05.384Z,16.57
2019-05-19T07:41:09.929Z,14.93
2019-05-19T07:51:19.576Z,18.07
2019-05-19T07:56:23.854Z,16.55
2019-05-19T08:01:27.958Z,17.07
2019-05-19T08:06:32.303Z,14.47
2019-05-19T08:11:42.858Z,16.67
2019-05-19T08:16:46.864Z,14.03
2019-05-19T08:21:51.030Z,15.28
2019-05-19T08:26:59.361Z,15.08
2019-05-19T08:32:03.435Z,15.00
2019-05-19T08:37:07.544Z,13.13
2019-05-19T08:42:11.843Z,13.75
2019-05-19T08:47:16.027Z,12.07
2019-05-19T08:52:19.960Z,11.65
2019-05-19T08:57:24.441Z,10.43
2019-05-19T09:02:29.708Z,11.18
2019-05-19T09:07:33.973Z,11.00
2019-05-19T09:12:38.077Z,10.32
2019-05-19T09:17:45.287Z,8.63
2019-05-19T09:22:49.459Z,9.58
2019-05-19T09:27:54.950Z,9.48
2019-05-19T09:33:00.427Z,8.98
2019-05-19T09:38:07.252Z,9.05
2019-05-19T09:43:16.568Z,7.40
2019-05-19T09:48:20.862Z,6.05
2019-05-19T09:58:47.306Z,6.35
2019-05-19T10:03:51.616Z,5.12
2019-05-19T10:14:22.116Z,4.65
2019-05-19T10:19:35.952Z,5.87
2019-05-19T10:24:40.018Z,5.37
2019-05-19T10:29:47.591Z,5.78
2019-05-19T10:34:51.883Z,6.90
2019-05-19T10:50:07.881Z,5.67
2019-05-19T10:55:13.672Z,5.00
2019-05-19T11:00:20.723Z,5.33
2019-05-19T11:05:24.937Z,5.00
2019-05-19T11:10:38.044Z,4.00
2019-05-19T11:15:46.284Z,4.97
2019-05-19T11:20:50.406Z,3.60
2019-05-19T11:26:02.531Z,4.22
2019-05-19T11:31:08.227Z,3.70
2019-05-19T11:36:16.616Z,3.47
2019-05-19T11:41:25.190Z,3.08
2019-05-19T11:46:29.463Z,2.77
2019-05-19T11:56:53.781Z,3.33
2019-05-19T12:02:06.736Z,2.65
2019-05-19T12:07:13.879Z,2.90
2019-05-19T12:12:22.168Z,3.15
2019-05-19T12:17:26.094Z,3.20
2019-05-19T12:22:33.185Z,2.52
2019-05-19T12:27:40.873Z,2.87
2019-05-19T12:32:45.413Z,3.25
2019-05-19T12:37:51.894Z,3.17
2019-05-19T12:42:59.121Z,3.52
2019-05-19T12:48:05.890Z,2.90
2019-05-19T12:53:15.441Z,3.12
2019-05-19T12:58:25.344Z,3.50
2019-05-19T13:03:29.765Z,3.22
2019-05-19T13:08:35.547Z,3.62
2019-05-19T13:13:43.104Z,2.90
2019-05-19T13:18:47.907Z,2.72
2019-05-19T13:23:56.028Z,2.70
2019-05-19T13:29:04.544Z,2.52
2019-05-19T13:34:12.154Z,3.10
2019-05-19T13:39:21.036Z,2.65
2019-05-19T13:44:27.424Z,3.15
2019-05-19T13:49:32.261Z,3.17
2019-05-19T13:54:36.872Z,3.20
2019-05-19T13:59:41.174Z,3.20
2019-05-19T14:09:56.325Z,3.30
2019-05-19T14:15:04.347Z,3.08
2019-05-19T14:20:13.761Z,2.90
2019-05-19T14:25:19.324Z,2.60
2019-05-19T14:30:30.346Z,2.52
2019-05-19T14:35:56.475Z,2.17
2019-05-19T14:41:04.655Z,2.40
2019-05-19T14:46:16.718Z,2.20
2019-05-19T14:51:43.934Z,7.78
2019-05-19T14:56:55.530Z,6.10
2019-05-19T15:02:20.422Z,7.55
2019-05-19T15:07:26.407Z,2.50
2019-05-19T15:12:33.083Z,4.15
2019-05-19T15:17:39.268Z,2.50
2019-05-19T15:22:43.400Z,2.30
2019-05-19T15:33:57.792Z,4.85
2019-05-19T15:39:03.505Z,2.85
2019-05-19T15:44:07.770Z,2.67
2019-05-19T16:01:41.607Z,2.20
2019-05-19T16:07:49.286Z,1.80
2019-05-19T16:12:56.485Z,2.45
2019-05-19T16:18:07.107Z,2.67
2019-05-19T16:23:29.238Z,2.33
2019-05-19T16:28:32.687Z,1.82
2019-05-19T16:38:42.322Z,2.10
2019-05-19T16:43:46.416Z,1.60
2019-05-19T16:48:52.745Z,2.00
2019-05-19T16:54:01.016Z,1.92
2019-05-19T16:59:05.858Z,2.10
2019-05-19T17:04:13.272Z,1.98
2019-05-19T17:09:17.351Z,2.08
2019-05-19T17:14:25.046Z,2.22
2019-05-19T17:19:29.225Z,1.82
2019-05-19T17:24:34.847Z,2.00
2019-05-19T17:29:38.933Z,1.70
2019-05-19T17:34:50.017Z,1.62
2019-05-19T17:39:54.393Z,2.10
2019-05-19T17:45:01.490Z,1.95
2019-05-19T17:50:06.656Z,1.72
2019-05-19T17:55:12.532Z,1.85
2019-05-19T18:00:22.118Z,1.80
2019-05-19T18:05:35.605Z,1.65
2019-05-19T18:10:46.575Z,2.00
2019-05-19T18:15:52.136Z,1.50
2019-05-19T18:20:59.570Z,1.70
2019-05-19T18:26:20.801Z,2.00
2019-05-19T18:31:32.241Z,1.72
2019-05-19T18:36:40.133Z,1.75
2019-05-19T18:41:47.041Z,2.15
2019-05-19T18:46:52.571Z,2.00
2019-05-19T18:52:02.606Z,2.33
2019-05-19T18:57:07.074Z,2.70
2019-05-19T19:02:13.352Z,2.60
2019-05-19T19:07:21.059Z,3.10
2019-05-19T19:12:25.481Z,3.02
2019-05-19T19:17:31.085Z,4.67
2019-05-19T19:22:35.292Z,3.40
2019-05-19T19:27:39.698Z,3.55
2019-05-19T19:32:47.808Z,3.50
2019-05-19T19:37:52.560Z,3.72
2019-05-19T19:43:00.054Z,4.10
2019-05-19T19:48:07.067Z,4.47
2019-05-19T19:53:43.821Z,4.10
2019-05-19T20:03:56.608Z,4.05
2019-05-19T20:09:01.089Z,4.42
2019-05-19T20:20:03.614Z,4.80
2019-05-19T20:25:10.400Z,4.67
2019-05-19T20:30:14.686Z,4.67
2019-05-19T20:35:19.270Z,4.40
2019-05-19T20:45:40.961Z,5.17
2019-05-19T20:50:42.268Z,5.72
2019-05-19T20:55:46.773Z,4.70
2019-05-19T21:01:05.752Z,5.87
2019-05-19T21:06:12.420Z,6.33
2019-05-19T21:11:17.013Z,6.58
2019-05-19T21:21:24.551Z,6.30
2019-05-19T21:26:29.965Z,6.33
2019-05-19T21:31:46.455Z,7.00
2019-05-19T21:36:51.745Z,7.10
2019-05-19T21:41:56.179Z,7.67
2019-05-19T21:47:18.461Z,7.53
2019-05-19T21:52:22.865Z,6.92
2019-05-19T21:57:28.503Z,7.90
2019-05-19T22:02:33.313Z,8.83
2019-05-19T22:07:58.598Z,8.65
2019-05-19T22:13:02.933Z,9.03
2019-05-19T22:18:07.066Z,8.13
2019-05-19T22:23:11.390Z,8.43
2019-05-19T22:28:15.596Z,7.50
2019-05-19T22:33:19.668Z,9.38
2019-05-19T22:38:23.878Z,8.28
2019-05-19T22:43:29.628Z,9.10
2019-05-19T22:48:34.049Z,10.18
2019-05-19T22:53:38.193Z,9.88
2019-05-19T22:58:48.891Z,9.28
2019-05-19T23:03:52.918Z,10.35
2019-05-19T23:27:11.517Z,9.48
2019-05-19T23:32:21.930Z,10.63
2019-05-19T23:37:46.128Z,9.33
2019-05-19T23:42:52.950Z,9.05
2019-05-19T23:47:57.435Z,10.82
2019-05-19T23:53:04.879Z,10.88
2019-05-19T23:58:19.178Z,10.93
